Time;durP1;ratioP1;P1;durP2;ratioP2;P2;SDS_P1;SDS_P2;PMS_P1;PMS_P2;Temp;Humidity;BMP_temperature;BMP_pressure;BME280_temperature;BME280_humidity;BME280_pressure;Samples;Min_cycle;Max_cycle;Signal;HPM_P1;HPM_P2
2022/02/24 00:01:43;;;;;;;;;4.75;3.50;;;;;12.64;57.98;101624.88;5082973;27;45294;-74
2022/02/24 00:04:09;;;;;;;;;5.25;3.50;;;;;12.62;57.81;101624.97;5093019;27;45351;-74
2022/02/24 00:06:34;;;;;;;;;4.00;4.00;;;;;12.62;58.29;101619.66;5084855;27;46022;-75
2022/02/24 00:08:59;;;;;;;;;3.00;3.00;;;;;12.60;58.19;101621.56;5101957;27;45215;-74
2022/02/24 00:11:25;;;;;;;;;3.75;2.50;;;;;12.59;58.18;101622.50;5097185;27;45566;-75
2022/02/24 00:13:51;;;;;;;;;4.00;3.25;;;;;12.59;58.30;101614.56;5099329;27;45346;-75
2022/02/24 00:16:16;;;;;;;;;4.75;3.75;;;;;12.58;58.40;101611.06;5087022;27;46376;-74
2022/02/24 00:18:41;;;;;;;;;7.75;3.50;;;;;12.57;58.41;101616.44;5093009;27;45380;-74
2022/02/24 00:21:07;;;;;;;;;4.50;3.25;;;;;12.57;58.55;101617.28;5090044;27;45248;-74
2022/02/24 00:23:32;;;;;;;;;8.00;4.00;;;;;12.57;58.48;101614.66;5095367;27;45563;-75
2022/02/24 00:25:58;;;;;;;;;7.50;4.00;;;;;12.58;58.78;101605.78;5087551;27;45394;-74
2022/02/24 00:28:23;;;;;;;;;6.25;6.00;;;;;12.58;58.56;101604.94;5083452;27;45301;-74
2022/02/24 00:30:49;;;;;;;;;11.00;5.00;;;;;12.56;58.69;101602.38;5083467;27;45272;-74
2022/02/24 00:33:15;;;;;;;;;8.50;4.00;;;;;12.53;58.74;101597.22;5083377;27;45493;-75
2022/02/24 00:35:40;;;;;;;;;6.75;4.75;;;;;12.52;58.50;101597.31;5082904;27;45394;-74
2022/02/24 00:38:06;;;;;;;;;12.75;5.50;;;;;12.48;58.91;101588.72;5083196;27;45416;-74
2022/02/24 00:40:31;;;;;;;;;7.50;4.00;;;;;12.48;59.07;101582.56;5067026;27;45394;-74
2022/02/24 00:42:57;;;;;;;;;6.00;4.00;;;;;12.49;59.07;101581.66;5103713;27;45405;-74
2022/02/24 00:45:23;;;;;;;;;7.75;5.00;;;;;12.49;59.04;101581.66;5103413;27;45435;-74
2022/02/24 00:47:48;;;;;;;;;5.00;4.50;;;;;12.52;59.16;101584.97;5102277;27;45340;-74
2022/02/24 00:50:13;;;;;;;;;9.75;4.50;;;;;12.55;59.15;101582.13;5071978;27;45330;-74
2022/02/24 00:52:39;;;;;;;;;8.25;4.50;;;;;12.54;59.31;101571.66;5103501;27;45466;-75
2022/02/24 00:55:05;;;;;;;;;6.50;5.50;;;;;12.54;59.23;101575.16;5103229;27;45350;-74
2022/02/24 00:57:30;;;;;;;;;10.00;5.50;;;;;12.56;59.12;101565.38;5102719;27;46082;-74
2022/02/24 00:59:56;;;;;;;;;9.25;7.75;;;;;12.58;59.38;101560.00;5101765;27;45394;-75
2022/02/24 01:02:21;;;;;;;;;9.25;6.75;;;;;12.57;59.14;101559.16;5102733;27;45573;-74
2022/02/24 01:04:47;;;;;;;;;8.00;5.00;;;;;12.54;59.08;101561.94;5102802;27;46027;-75
2022/02/24 01:07:12;;;;;;;;;4.50;3.75;;;;;12.50;58.98;101551.63;5083074;27;45540;-74
2022/02/24 01:09:38;;;;;;;;;6.75;5.00;;;;;12.45;58.87;101551.03;5084340;27;45520;-74
2022/02/24 01:12:04;;;;;;;;;10.25;5.00;;;;;12.45;59.11;101541.31;5091744;27;45474;-74
2022/02/24 01:14:29;;;;;;;;;5.75;5.50;;;;;12.43;59.13;101545.81;5082401;28;45521;-75
2022/02/24 01:16:55;;;;;;;;;6.75;5.00;;;;;12.42;59.40;101530.91;5082433;28;45450;-75
2022/02/24 01:19:20;;;;;;;;;5.00;5.00;;;;;12.41;59.28;101531.00;5082382;27;45292;-74
2022/02/24 01:21:46;;;;;;;;;10.00;5.00;;;;;12.42;59.34;101533.56;5089628;27;45417;-75
2022/02/24 01:24:11;;;;;;;;;5.00;5.00;;;;;12.42;59.36;101532.69;5084210;27;45998;-74
2022/02/24 01:26:37;;;;;;;;;5.00;5.00;;;;;12.41;59.48;101523.94;5082349;27;45712;-74
2022/02/24 01:29:03;;;;;;;;;9.25;5.00;;;;;12.40;59.56;101529.25;5082565;28;45426;-74
2022/02/24 01:31:28;;;;;;;;;5.75;4.75;;;;;12.36;59.63;101519.81;5081525;28;45536;-74
2022/02/24 01:33:53;;;;;;;;;8.00;7.25;;;;;12.34;59.64;101517.25;5082518;27;45989;-74
2022/02/24 01:36:19;;;;;;;;;8.25;8.00;;;;;12.30;59.65;101521.00;5082535;27;45332;-74
2022/02/24 01:38:44;;;;;;;;;8.75;5.00;;;;;12.26;59.94;101519.47;5083007;27;45434;-74
2022/02/24 01:41:12;;;;;;;;;10.00;4.75;;;;;12.22;59.86;101516.13;5090896;27;45344;-74
2022/02/24 01:43:42;;;;;;;;;11.00;6.75;;;;;12.18;60.14;101513.75;5080593;28;45490;-74
2022/02/24 01:46:07;;;;;;;;;11.00;6.25;;;;;12.11;60.37;101507.06;5080551;27;45494;-74
2022/02/24 01:48:33;;;;;;;;;11.00;8.50;;;;;12.10;60.54;101513.28;5080681;27;45412;-69
2022/02/24 01:50:59;;;;;;;;;9.00;7.00;;;;;12.10;60.68;101508.88;5081659;28;45456;-75
2022/02/24 01:53:24;;;;;;;;;10.75;7.00;;;;;12.10;60.70;101510.66;5081721;28;46185;-75
2022/02/24 01:55:50;;;;;;;;;5.00;5.00;;;;;12.12;60.80;101511.41;5081867;28;45411;-75
2022/02/24 01:58:17;;;;;;;;;9.00;7.25;;;;;12.13;60.74;101506.06;5081504;27;45229;-75
2022/02/24 02:00:43;;;;;;;;;11.25;8.50;;;;;12.12;60.38;101506.13;5081836;28;45537;-75
2022/02/24 02:03:09;;;;;;;;;15.50;9.25;;;;;12.09;60.33;101488.69;5079921;27;46144;-76
2022/02/24 02:05:35;;;;;;;;;14.00;9.00;;;;;12.07;60.73;101494.94;5080245;27;45735;-75
2022/02/24 02:08:02;;;;;;;;;11.25;8.75;;;;;12.02;61.02;101488.16;5095023;27;45499;-75
2022/02/24 02:10:27;;;;;;;;;12.00;10.00;;;;;12.01;61.08;101488.25;5102566;27;45560;-76
2022/02/24 02:12:54;;;;;;;;;10.25;7.00;;;;;12.00;61.42;101462.75;5064290;28;45464;-75
2022/02/24 02:15:20;;;;;;;;;10.00;9.00;;;;;11.98;61.55;101464.63;5081331;28;45427;-75
2022/02/24 02:17:46;;;;;;;;;8.25;8.25;;;;;11.97;61.91;101460.28;5081684;28;45433;-75
2022/02/24 02:20:12;;;;;;;;;11.00;9.25;;;;;11.95;62.00;101455.09;5080511;28;45488;-75
2022/02/24 02:22:38;;;;;;;;;11.50;8.50;;;;;11.93;61.85;101454.31;5071806;28;46276;-75
2022/02/24 02:25:06;;;;;;;;;15.00;8.00;;;;;11.91;61.88;101452.66;5093395;27;45411;-75
2022/02/24 02:27:33;;;;;;;;;8.75;8.00;;;;;11.89;61.58;101444.00;5101664;27;45441;-75
2022/02/24 02:29:59;;;;;;;;;7.50;6.25;;;;;11.87;61.92;101438.81;5102435;27;45394;-75
2022/02/24 02:32:24;;;;;;;;;8.00;5.50;;;;;11.87;61.62;101441.44;5081991;27;45616;-75
2022/02/24 02:34:50;;;;;;;;;10.50;8.50;;;;;11.89;61.84;101438.72;5102077;27;45157;-75
2022/02/24 02:37:15;;;;;;;;;12.50;7.50;;;;;11.86;61.62;101434.47;5101600;27;45516;-75
2022/02/24 02:39:41;;;;;;;;;14.00;9.25;;;;;11.86;61.79;101430.97;5102018;27;45459;-75
2022/02/24 02:42:07;;;;;;;;;8.50;6.25;;;;;11.84;62.22;101431.03;5082828;27;45359;-75
2022/02/24 02:44:32;;;;;;;;;11.75;9.00;;;;;11.84;61.71;101430.16;5081032;28;45498;-75
2022/02/24 02:46:57;;;;;;;;;11.50;8.75;;;;;11.86;61.80;101433.59;5099049;27;45349;-74
2022/02/24 02:49:23;;;;;;;;;12.00;8.50;;;;;11.85;62.03;101431.88;5101505;27;45610;-75
2022/02/24 02:51:49;;;;;;;;;13.00;10.00;;;;;11.85;61.97;101430.13;5101612;27;46085;-75
2022/02/24 02:54:14;;;;;;;;;12.00;10.00;;;;;11.86;62.24;101431.81;5101516;27;45387;-75
2022/02/24 02:56:40;;;;;;;;;10.75;10.25;;;;;11.88;61.76;101421.16;5101404;27;45296;-75
2022/02/24 02:59:06;;;;;;;;;7.00;6.75;;;;;11.87;61.65;101415.03;5101788;27;45638;-75
2022/02/24 03:01:31;;;;;;;;;10.50;8.75;;;;;11.86;61.56;101415.13;5100508;27;45777;-75
2022/02/24 03:03:57;;;;;;;;;8.25;6.75;;;;;11.87;61.36;101414.19;5100241;27;45499;-75
2022/02/24 03:06:22;;;;;;;;;7.25;7.00;;;;;11.86;61.13;101401.94;5101141;27;45623;-75
2022/02/24 03:08:48;;;;;;;;;13.00;6.25;;;;;11.87;61.57;101403.63;5101661;27;45389;-75
2022/02/24 03:11:13;;;;;;;;;7.00;7.00;;;;;11.87;61.21;101396.56;5095792;27;46129;-75
2022/02/24 03:13:39;;;;;;;;;8.50;5.25;;;;;11.88;60.99;101400.91;5080956;28;45316;-75
2022/02/24 03:16:05;;;;;;;;;7.25;7.00;;;;;11.86;61.29;101394.84;5080602;27;45366;-75
2022/02/24 03:18:30;;;;;;;;;9.25;6.25;;;;;11.88;61.00;101400.06;5080620;28;45415;-75
2022/02/24 03:20:56;;;;;;;;;7.00;7.00;;;;;11.89;60.75;101397.31;5084683;27;45343;-76
2022/02/24 03:23:21;;;;;;;;;6.25;4.25;;;;;11.90;60.47;101390.25;5089920;27;45379;-75
2022/02/24 03:25:47;;;;;;;;;6.75;4.25;;;;;11.89;60.38;101388.56;5079037;27;45374;-75
2022/02/24 03:28:12;;;;;;;;;7.25;4.50;;;;;11.84;59.58;101380.00;5090552;27;45533;-75
2022/02/24 03:30:39;;;;;;;;;3.75;3.50;;;;;11.83;59.57;101381.81;5080503;28;46017;-76
2022/02/24 03:33:05;;;;;;;;;5.50;3.50;;;;;11.83;59.14;101379.16;5080733;28;45456;-76
2022/02/24 03:35:31;;;;;;;;;4.75;3.75;;;;;11.79;59.35;101384.69;5080813;27;45416;-76
2022/02/24 03:38:00;;;;;;;;;9.00;6.00;;;;;11.77;59.20;101378.59;5081019;28;45414;-76
2022/02/24 03:40:27;;;;;;;;;4.00;2.00;;;;;11.75;59.11;101376.91;5092268;27;45629;-74
2022/02/24 03:42:53;;;;;;;;;7.00;4.75;;;;;11.77;59.20;101368.06;5080036;28;45644;-73
2022/02/24 03:45:18;;;;;;;;;12.25;4.00;;;;;11.78;58.74;101368.00;5080154;28;45581;-73
2022/02/24 03:47:44;;;;;;;;;4.00;4.00;;;;;11.77;58.63;101371.56;5080079;27;45379;-74
2022/02/24 03:50:13;;;;;;;;;3.50;3.00;;;;;11.75;58.60;101363.72;5080294;27;45518;-75
2022/02/24 03:52:38;;;;;;;;;2.25;2.25;;;;;11.75;58.38;101363.72;5080439;28;45328;-76
2022/02/24 03:55:04;;;;;;;;;5.75;4.50;;;;;11.76;58.53;101359.28;5080270;28;45359;-76
2022/02/24 03:57:30;;;;;;;;;5.00;3.25;;;;;11.77;57.91;101358.38;5080531;28;45418;-76
2022/02/24 03:59:55;;;;;;;;;4.00;2.00;;;;;11.75;58.36;101347.88;5080135;28;45358;-76
2022/02/24 04:02:21;;;;;;;;;4.50;4.00;;;;;11.77;57.70;101341.66;5079070;28;45387;-76
2022/02/24 04:04:46;;;;;;;;;8.00;3.50;;;;;11.76;57.98;101335.53;5080059;27;45288;-75
2022/02/24 04:07:12;;;;;;;;;5.50;4.00;;;;;11.74;58.01;101335.63;5087690;27;45276;-75
2022/02/24 04:09:38;;;;;;;;;6.00;2.00;;;;;11.74;57.96;101321.56;5081728;27;47572;-76
2022/02/24 04:12:05;;;;;;;;;5.00;3.00;;;;;11.74;56.88;101330.34;5088748;27;45478;-75
2022/02/24 04:14:30;;;;;;;;;4.00;2.00;;;;;11.71;56.98;101319.13;5080049;28;45326;-75
2022/02/24 04:16:57;;;;;;;;;8.50;4.25;;;;;11.70;56.87;101318.25;5080384;28;45335;-76
2022/02/24 04:19:24;;;;;;;;;4.50;3.00;;;;;11.69;57.11;101324.47;5079859;28;45992;-76
2022/02/24 04:21:50;;;;;;;;;4.00;2.00;;;;;11.68;56.83;101322.75;5088003;27;45573;-76
2022/02/24 04:24:15;;;;;;;;;3.50;3.00;;;;;11.64;57.27;101318.59;5084617;27;45391;-76
2022/02/24 04:26:41;;;;;;;;;4.75;3.25;;;;;11.61;57.31;101321.41;5083572;27;45395;-76
2022/02/24 04:29:06;;;;;;;;;6.75;2.50;;;;;11.58;57.97;101321.56;5083294;27;45864;-76
2022/02/24 04:31:32;;;;;;;;;4.00;2.25;;;;;11.51;57.61;101325.44;5083322;27;45402;-75
2022/02/24 04:33:57;;;;;;;;;2.75;2.75;;;;;11.50;57.96;101326.41;5083392;27;45427;-76
2022/02/24 04:36:23;;;;;;;;;4.00;4.00;;;;;11.51;58.17;101328.09;5083652;28;45879;-76
2022/02/24 04:38:49;;;;;;;;;9.50;3.00;;;;;11.48;57.89;101328.28;5084152;27;45559;-75
2022/02/24 04:41:15;;;;;;;;;2.75;2.50;;;;;11.46;57.68;101319.59;5091964;27;45297;-74
2022/02/24 04:43:40;;;;;;;;;3.00;3.00;;;;;11.42;57.61;101324.16;5082901;27;45477;-75
2022/02/24 04:46:06;;;;;;;;;3.75;2.00;;;;;11.39;57.52;101311.16;5092213;27;45379;-75
2022/02/24 04:48:32;;;;;;;;;3.75;2.75;;;;;11.36;57.61;101316.56;5082951;27;45504;-75
2022/02/24 04:50:57;;;;;;;;;6.50;3.50;;;;;11.35;57.79;101312.22;5083274;28;45450;-75
2022/02/24 04:53:23;;;;;;;;;9.00;4.00;;;;;11.34;57.73;101313.16;5083174;27;45333;-75
2022/02/24 04:55:48;;;;;;;;;6.00;3.00;;;;;11.34;57.60;101309.69;5082282;27;45634;-75
2022/02/24 04:58:14;;;;;;;;;5.25;3.00;;;;;11.31;57.97;101302.78;5082592;28;45347;-75
2022/02/24 05:00:41;;;;;;;;;4.50;1.50;;;;;11.27;57.70;101308.31;5082082;28;45454;-75
2022/02/24 05:03:07;;;;;;;;;4.00;3.00;;;;;11.26;57.72;101303.97;5081488;27;45402;-75
2022/02/24 05:05:32;;;;;;;;;3.75;3.00;;;;;11.22;57.51;101305.94;5083177;28;45347;-75
2022/02/24 05:07:59;;;;;;;;;3.75;3.25;;;;;11.18;57.59;101299.09;5096347;27;46072;-75
2022/02/24 05:10:25;;;;;;;;;3.00;1.25;;;;;11.14;57.72;101298.41;5103269;27;45267;-73
2022/02/24 05:12:51;;;;;;;;;2.25;2.00;;;;;11.12;58.17;101297.63;5102462;27;45426;-73
2022/02/24 05:15:17;;;;;;;;;13.25;2.75;;;;;11.10;57.86;101298.66;5102947;27;45336;-73
2022/02/24 05:17:42;;;;;;;;;4.00;3.00;;;;;11.07;58.10;101290.91;5102865;27;45445;-73
2022/02/24 05:20:10;;;;;;;;;5.25;5.25;;;;;11.05;58.41;101295.38;5103141;27;45296;-73
2022/02/24 05:22:39;;;;;;;;;3.00;3.00;;;;;11.00;58.24;101294.78;5098187;27;45377;-73
2022/02/24 05:25:06;;;;;;;;;4.00;3.00;;;;;10.99;58.22;101286.03;5082880;27;45351;-73
2022/02/24 05:27:31;;;;;;;;;7.00;7.00;;;;;10.99;58.55;101285.19;5081985;27;46312;-72
2022/02/24 05:29:57;;;;;;;;;5.25;2.00;;;;;10.97;58.45;101279.13;5082181;28;45355;-72
2022/02/24 05:32:22;;;;;;;;;3.50;2.25;;;;;10.94;58.60;101279.28;5081647;27;45517;-72
2022/02/24 05:34:48;;;;;;;;;3.50;2.00;;;;;10.92;58.43;101292.56;5081942;28;45395;-72
2022/02/24 05:37:13;;;;;;;;;4.75;3.50;;;;;10.88;58.90;101277.81;5082338;28;45817;-72
2022/02/24 05:39:39;;;;;;;;;5.25;3.00;;;;;10.89;58.59;101279.53;5091156;27;45466;-72
2022/02/24 05:42:04;;;;;;;;;8.00;2.75;;;;;10.88;58.83;101276.03;5083481;27;45130;-72
2022/02/24 05:44:30;;;;;;;;;3.50;3.25;;;;;10.86;58.19;101277.91;5082282;28;45501;-72
2022/02/24 05:46:55;;;;;;;;;6.00;3.00;;;;;10.83;58.29;101278.06;5081374;27;45933;-72
2022/02/24 05:49:21;;;;;;;;;6.00;3.75;;;;;10.84;59.12;101273.66;5074556;27;45628;-73
2022/02/24 05:51:46;;;;;;;;;3.00;3.00;;;;;10.83;58.38;101275.44;5084042;27;45378;-73
2022/02/24 05:54:12;;;;;;;;;4.75;2.75;;;;;10.84;58.59;101276.28;5082454;27;45370;-72
2022/02/24 05:56:38;;;;;;;;;7.00;4.25;;;;;10.85;57.80;101280.63;5081723;27;46014;-72
2022/02/24 05:59:04;;;;;;;;;2.00;2.00;;;;;10.86;58.16;101279.69;5091050;27;45355;-71
2022/02/24 06:01:29;;;;;;;;;3.25;2.50;;;;;10.84;57.37;101268.38;5082001;28;45391;-72
2022/02/24 06:03:55;;;;;;;;;4.25;1.75;;;;;10.83;57.13;101264.91;5080734;27;45422;-72
2022/02/24 06:06:20;;;;;;;;;3.00;2.00;;;;;10.80;57.08;101258.91;5080891;27;45620;-72
2022/02/24 06:08:46;;;;;;;;;7.00;2.00;;;;;10.76;57.17;101262.66;5101579;27;45397;-72
2022/02/24 06:11:11;;;;;;;;;1.75;1.50;;;;;10.73;57.01;101270.69;5097841;27;45436;-72
2022/02/24 06:13:37;;;;;;;;;2.75;1.00;;;;;10.69;56.76;101263.91;5081629;28;45536;-72
2022/02/24 06:16:03;;;;;;;;;2.25;1.00;;;;;10.66;56.83;101264.03;5081579;28;45756;-72
2022/02/24 06:18:28;;;;;;;;;3.00;1.75;;;;;10.61;56.58;101259.03;5081285;28;45403;-72
2022/02/24 06:20:54;;;;;;;;;4.25;2.00;;;;;10.59;56.63;101258.25;5080147;27;45294;-72
2022/02/24 06:23:19;;;;;;;;;3.00;1.25;;;;;10.53;56.52;101250.66;5090690;27;45634;-73
2022/02/24 06:25:45;;;;;;;;;2.25;2.00;;;;;10.49;56.98;101254.38;5081040;27;45196;-73
2022/02/24 06:28:11;;;;;;;;;5.75;3.00;;;;;10.46;57.05;101252.75;5081293;28;45377;-72
2022/02/24 06:30:36;;;;;;;;;3.00;3.00;;;;;10.48;56.75;101247.41;5081895;27;45786;-72
2022/02/24 06:33:03;;;;;;;;;5.75;2.25;;;;;10.44;56.63;101246.72;5081536;28;45160;-72
2022/02/24 06:35:28;;;;;;;;;3.50;1.75;;;;;10.43;57.46;101249.44;5087547;27;45569;-72
2022/02/24 06:37:54;;;;;;;;;1.75;1.00;;;;;10.42;57.02;101245.91;5101023;27;45437;-73
2022/02/24 06:40:19;;;;;;;;;5.00;2.00;;;;;10.44;56.87;101243.22;5095391;27;45791;-72
2022/02/24 06:42:45;;;;;;;;;1.50;1.00;;;;;10.43;57.20;101244.16;5100284;27;45637;-73
2022/02/24 06:45:11;;;;;;;;;3.50;2.00;;;;;10.43;57.01;101244.16;5069116;27;45252;-72
2022/02/24 06:47:36;;;;;;;;;3.25;2.75;;;;;10.40;57.47;101254.84;5092124;27;45523;-72
2022/02/24 06:50:03;;;;;;;;;3.50;2.00;;;;;10.41;56.98;101241.56;5080986;28;45385;-74
2022/02/24 06:52:29;;;;;;;;;2.25;1.00;;;;;10.40;56.99;101244.28;5100243;27;45490;-74
2022/02/24 06:54:56;;;;;;;;;8.00;3.00;;;;;10.41;56.94;101251.25;5086648;27;46260;-73
2022/02/24 06:57:21;;;;;;;;;4.00;2.00;;;;;10.40;56.87;101250.41;5080333;28;45622;-73
2022/02/24 06:59:47;;;;;;;;;3.25;2.00;;;;;10.41;56.80;101244.22;5080885;27;45399;-71
2022/02/24 07:02:12;;;;;;;;;2.50;2.50;;;;;10.40;57.04;101247.78;5095203;27;45447;-73
2022/02/24 07:04:38;;;;;;;;;2.25;1.50;;;;;10.39;56.63;101259.25;5075996;27;45670;-73
2022/02/24 07:07:03;;;;;;;;;7.00;2.25;;;;;10.39;56.73;101253.97;5099586;27;45638;-72
2022/02/24 07:09:31;;;;;;;;;8.75;2.50;;;;;10.39;57.07;101250.50;5101120;27;45422;-72
2022/02/24 07:11:56;;;;;;;;;3.75;2.00;;;;;10.39;57.22;101261.03;5107652;27;45995;-72
2022/02/24 07:14:22;;;;;;;;;3.25;2.50;;;;;10.39;56.65;101263.66;5109727;27;46007;-72
2022/02/24 07:16:48;;;;;;;;;6.00;2.00;;;;;10.42;56.75;101261.72;5094423;27;45451;-72
2022/02/24 07:19:14;;;;;;;;;3.00;3.00;;;;;10.40;56.62;101257.47;5086793;27;45415;-73
2022/02/24 07:21:40;;;;;;;;;4.00;1.00;;;;;10.43;57.16;101266.09;5086740;27;45548;-73
2022/02/24 07:24:06;;;;;;;;;5.75;3.00;;;;;10.45;57.30;101269.47;5064883;27;46517;-73
2022/02/24 07:26:32;;;;;;;;;4.00;2.00;;;;;10.49;56.93;101272.78;5082343;27;45651;-73
2022/02/24 07:28:58;;;;;;;;;4.00;1.50;;;;;10.50;56.79;101263.97;5080478;28;45513;-72
2022/02/24 07:31:23;;;;;;;;;7.25;3.00;;;;;10.53;56.85;101271.72;5092663;27;45395;-72
2022/02/24 07:33:49;;;;;;;;;0.00;0.00;;;;;10.49;56.61;101260.47;5085989;27;45344;-72
2022/02/24 07:36:15;;;;;;;;;3.50;2.00;;;;;10.55;56.74;101261.97;5081105;28;45357;-69
2022/02/24 07:38:42;;;;;;;;;4.25;2.50;;;;;10.60;56.99;101265.22;5080758;27;45334;-71
2022/02/24 07:41:07;;;;;;;;;3.00;0.50;;;;;10.63;56.93;101259.78;5090979;27;45378;-71
2022/02/24 07:43:33;;;;;;;;;6.75;4.00;;;;;10.68;57.14;101262.19;5090334;27;46127;-71
2022/02/24 07:45:59;;;;;;;;;6.25;3.00;;;;;10.70;56.69;101258.53;5089380;27;45264;-70
2022/02/24 07:48:26;;;;;;;;;3.00;1.00;;;;;10.76;56.76;101257.38;5082636;27;45513;-71
2022/02/24 07:50:52;;;;;;;;;5.00;1.00;;;;;10.80;56.25;101243.09;5080229;28;45529;-70
2022/02/24 07:53:18;;;;;;;;;6.75;4.00;;;;;10.85;56.23;101254.28;5079918;28;45339;-71
2022/02/24 07:55:43;;;;;;;;;4.50;2.25;;;;;10.92;56.42;101249.53;5079966;28;45255;-70
2022/02/24 07:58:11;;;;;;;;;4.50;2.00;;;;;10.98;56.04;101241.28;5083248;27;45408;-70
2022/02/24 08:00:37;;;;;;;;;4.00;3.50;;;;;11.04;56.01;101246.22;5083961;28;45510;-70
2022/02/24 08:03:03;;;;;;;;;5.25;2.00;;;;;11.09;55.75;101246.84;5083785;27;45463;-70
2022/02/24 08:05:28;;;;;;;;;3.50;2.00;;;;;11.14;55.60;101242.19;5084217;28;45469;-70
2022/02/24 08:07:54;;;;;;;;;3.25;2.25;;;;;11.20;55.72;101241.84;5096992;27;45162;-70
2022/02/24 08:10:20;;;;;;;;;5.00;2.75;;;;;11.22;55.76;101229.44;5104178;27;45221;-70
2022/02/24 08:12:47;;;;;;;;;6.25;3.25;;;;;11.26;55.58;101217.78;5085636;27;45901;-72
2022/02/24 08:15:14;;;;;;;;;8.25;2.75;;;;;11.26;55.19;101225.69;5083266;27;45283;-70
2022/02/24 08:17:41;;;;;;;;;3.50;2.00;;;;;11.29;55.35;101222.88;5083015;27;45375;-71
2022/02/24 08:20:07;;;;;;;;;2.25;2.00;;;;;11.34;54.96;101225.28;5083362;28;45250;-72
2022/02/24 08:22:41;;;;;;;;;4.75;2.00;;;;;11.32;55.23;101225.38;5091547;27;45367;-71
2022/02/24 08:25:09;;;;;;;;;6.25;3.00;;;;;11.32;55.07;101229.78;5083510;27;45455;-71
2022/02/24 08:27:35;;;;;;;;;4.00;1.00;;;;;11.32;54.83;101214.81;5083578;28;45327;-71
2022/02/24 08:30:06;;;;;;;;;3.50;2.00;;;;;11.35;54.95;101216.44;5083936;28;45561;-70
2022/02/24 08:32:31;;;;;;;;;3.00;2.00;;;;;11.41;54.92;101219.59;5090871;27;47273;-71
2022/02/24 08:34:58;;;;;;;;;6.75;3.50;;;;;11.52;55.03;101229.53;5103682;27;45346;-72
2022/02/24 08:37:26;;;;;;;;;50.25;42.50;;;;;11.60;54.64;101213.28;5103555;27;45247;-71
2022/02/24 08:39:52;;;;;;;;;2.75;1.00;;;;;11.70;54.45;101220.63;5104217;27;45196;-71
2022/02/24 08:42:18;;;;;;;;;7.00;2.00;;;;;11.73;54.53;101222.22;5083557;28;45319;-71
2022/02/24 08:44:44;;;;;;;;;2.00;2.00;;;;;11.73;54.05;101209.03;5083251;27;45133;-71
2022/02/24 08:47:12;;;;;;;;;1.75;1.00;;;;;11.74;54.27;101216.00;5090271;27;45438;-71
2022/02/24 08:49:38;;;;;;;;;12.00;2.00;;;;;11.83;54.28;101219.94;5103981;27;46550;-71
2022/02/24 08:52:05;;;;;;;;;6.25;2.50;;;;;11.92;54.09;101207.06;5104042;27;45391;-71
2022/02/24 08:54:32;;;;;;;;;7.25;2.00;;;;;11.98;54.13;101209.34;5103709;27;45173;-71
2022/02/24 08:56:59;;;;;;;;;3.75;1.25;;;;;12.02;54.10;101215.31;5103697;27;45280;-71
2022/02/24 08:59:25;;;;;;;;;5.75;1.25;;;;;12.01;54.45;101214.47;5103555;27;45576;-71
2022/02/24 09:01:50;;;;;;;;;5.75;1.00;;;;;11.99;54.39;101228.69;5103637;27;45890;-71
2022/02/24 09:04:16;;;;;;;;;2.25;2.00;;;;;11.98;54.24;101222.56;5103715;27;45321;-71
2022/02/24 09:06:41;;;;;;;;;6.00;1.00;;;;;11.96;54.47;101226.22;5103738;27;45411;-71
2022/02/24 09:09:07;;;;;;;;;7.25;2.50;;;;;11.92;54.26;101217.63;5102516;27;45442;-71
2022/02/24 09:11:32;;;;;;;;;2.00;2.00;;;;;11.85;54.64;101224.22;5096666;27;45306;-71
2022/02/24 09:13:58;;;;;;;;;4.00;1.00;;;;;11.78;54.37;101222.81;5083031;28;45395;-71
2022/02/24 09:16:23;;;;;;;;;3.00;1.50;;;;;11.76;55.00;101229.97;5083125;27;45343;-71
2022/02/24 09:18:49;;;;;;;;;3.00;1.75;;;;;11.74;54.97;101223.91;5083065;28;45252;-71
2022/02/24 09:21:15;;;;;;;;;4.00;1.50;;;;;11.75;54.88;101220.34;5085358;27;46116;-71
2022/02/24 09:23:40;;;;;;;;;1.50;1.00;;;;;11.75;55.05;101218.53;5090599;27;45318;-71
2022/02/24 09:26:06;;;;;;;;;3.00;0.75;;;;;11.79;54.63;101224.53;5083344;27;45169;-71
2022/02/24 09:28:31;;;;;;;;;3.75;1.75;;;;;11.80;54.71;101223.63;5083289;27;45355;-73
2022/02/24 09:30:57;;;;;;;;;1.00;1.00;;;;;11.84;54.90;101213.72;5082753;27;46009;-71
2022/02/24 09:33:22;;;;;;;;;2.50;1.00;;;;;11.89;54.85;101223.09;5082212;28;45433;-72
2022/02/24 09:35:48;;;;;;;;;2.00;1.00;;;;;11.96;54.71;101213.03;5081847;28;45215;-71
2022/02/24 09:38:16;;;;;;;;;5.50;1.00;;;;;11.99;54.93;101221.59;5081926;28;45248;-71
2022/02/24 09:40:45;;;;;;;;;28.75;14.50;;;;;12.01;55.02;101221.56;5092588;27;45707;-71
2022/02/24 09:43:10;;;;;;;;;7.25;2.00;;;;;12.05;55.33;101201.94;5081660;28;45247;-71
2022/02/24 09:45:39;;;;;;;;;15.75;11.00;;;;;12.16;54.95;101206.59;5081484;27;45237;-70
2022/02/24 09:48:06;;;;;;;;;4.50;1.00;;;;;12.25;55.04;101208.72;5082003;28;45332;-71
2022/02/24 09:50:33;;;;;;;;;1.00;1.00;;;;;12.29;55.20;101203.13;5081345;28;45490;-71
2022/02/24 09:52:59;;;;;;;;;2.50;1.50;;;;;12.36;55.22;101195.72;5081935;28;45280;-71
2022/02/24 09:55:25;;;;;;;;;1.00;1.00;;;;;12.44;54.94;101198.75;5082293;27;45260;-71
2022/02/24 09:57:51;;;;;;;;;1.50;0.50;;;;;12.51;55.13;101193.94;5082185;28;45299;-71
2022/02/24 10:00:18;;;;;;;;;4.00;2.00;;;;;12.62;54.75;101202.06;5082131;28;45624;-71
2022/02/24 10:02:44;;;;;;;;;6.75;1.00;;;;;12.68;54.79;101198.22;5082015;28;45379;-71
2022/02/24 10:05:15;;;;;;;;;2.00;0.50;;;;;12.73;54.58;101196.16;5082231;27;45467;-72
2022/02/24 10:07:41;;;;;;;;;3.75;2.75;;;;;12.75;54.69;101187.16;5093368;27;45217;-72
2022/02/24 10:10:24;;;;;;;;;3.50;1.00;;;;;12.83;54.15;101189.34;5101841;27;45502;-73
2022/02/24 10:13:11;;;;;;;;;1.00;1.00;;;;;12.89;54.06;101188.97;5083304;27;45179;-72
2022/02/24 10:15:39;;;;;;;;;4.00;0.75;;;;;12.94;53.89;101180.75;5080989;27;45443;-73
2022/02/24 10:18:10;;;;;;;;;2.25;1.00;;;;;13.01;53.95;101190.00;5081613;27;45418;-72
2022/02/24 10:20:38;;;;;;;;;2.75;1.00;;;;;13.07;53.71;101195.75;5081208;27;46110;-72
2022/02/24 10:23:03;;;;;;;;;3.00;1.00;;;;;13.12;53.53;101180.47;5091108;27;45165;-71
2022/02/24 10:25:43;;;;;;;;;9.50;5.00;;;;;13.09;53.37;101183.28;5081944;28;45373;-72
2022/02/24 10:28:30;;;;;;;;;3.00;1.00;;;;;12.98;53.26;101172.53;5082055;28;45186;-71
2022/02/24 10:30:56;;;;;;;;;1.25;1.25;;;;;12.99;53.44;101184.81;5081655;27;46001;-72
2022/02/24 10:33:29;;;;;;;;;3.00;1.00;;;;;13.00;53.52;101183.84;5077198;27;45349;-72
2022/02/24 10:36:25;;;;;;;;;3.75;1.00;;;;;13.04;53.55;101174.81;5094902;27;45250;-72
2022/02/24 10:38:59;;;;;;;;;2.00;1.00;;;;;13.08;53.61;101172.81;5079317;27;45417;-71
2022/02/24 10:41:29;;;;;;;;;1.50;1.50;;;;;13.18;53.05;101170.41;5089316;27;46474;-72
2022/02/24 10:44:21;;;;;;;;;4.00;2.00;;;;;13.19;53.27;101172.13;5081619;28;45402;-72
2022/02/24 10:46:52;;;;;;;;;1.75;0.00;;;;;13.28;52.97;101161.00;5076647;27;45384;-72
2022/02/24 10:49:31;;;;;;;;;2.50;1.00;;;;;13.24;53.12;101172.72;5074104;27;45494;-71
2022/02/24 10:52:09;;;;;;;;;4.75;1.00;;;;;13.22;52.96;101167.53;5082143;27;46226;-72
2022/02/24 10:54:34;;;;;;;;;1.75;1.00;;;;;13.25;53.02;101169.13;5081386;28;45401;-71
2022/02/24 10:57:16;;;;;;;;;6.75;1.00;;;;;13.23;52.83;101139.28;5081262;27;45403;-71
2022/02/24 10:59:42;;;;;;;;;1.00;1.00;;;;;13.18;53.17;101146.63;5081439;27;45446;-72
2022/02/24 11:02:07;;;;;;;;;2.00;1.75;;;;;13.14;53.03;101138.88;5081084;28;46116;-71
2022/02/24 11:04:34;;;;;;;;;2.00;1.00;;;;;13.13;53.17;101131.06;5081414;27;45263;-71
2022/02/24 11:07:00;;;;;;;;;2.25;1.00;;;;;13.12;53.34;101137.28;5086487;27;45375;-71
2022/02/24 11:09:26;;;;;;;;;4.50;1.75;;;;;13.13;53.62;101131.91;5101308;27;45529;-72
2022/02/24 11:11:53;;;;;;;;;2.25;1.00;;;;;13.19;53.38;101121.84;5092122;27;46028;-71
2022/02/24 11:14:19;;;;;;;;;1.75;0.50;;;;;13.23;53.59;101110.19;5081225;28;45374;-72
2022/02/24 11:16:47;;;;;;;;;4.25;2.75;;;;;13.29;53.48;101102.69;5081169;28;45281;-70
2022/02/24 11:19:15;;;;;;;;;2.50;2.00;;;;;13.25;53.47;101100.34;5081593;27;45568;-71
2022/02/24 11:21:43;;;;;;;;;3.00;2.50;;;;;13.25;53.46;101087.09;5088905;27;45330;-70